createdAt,value
2022-10-01T00:02:30.803Z,1.63
2022-10-01T00:05:04.418Z,1.27
2022-10-01T00:07:41.696Z,1.07
2022-10-01T00:10:15.893Z,1.73
2022-10-01T00:12:49.257Z,1.23
2022-10-01T00:15:22.370Z,1.57
2022-10-01T00:17:55.370Z,1.10
2022-10-01T00:20:28.294Z,0.93
2022-10-01T00:23:01.246Z,2.03
2022-10-01T00:25:34.528Z,1.30
2022-10-01T00:28:07.540Z,2.87
2022-10-01T00:30:46.828Z,1.43
2022-10-01T00:33:19.894Z,1.17
2022-10-01T00:35:54.644Z,1.77
2022-10-01T00:38:29.095Z,2.63
2022-10-01T00:41:02.069Z,1.43
2022-10-01T00:43:37.564Z,1.50
2022-10-01T00:46:15.022Z,1.40
2022-10-01T00:48:52.461Z,1.37
2022-10-01T00:51:38.378Z,1.20
2022-10-01T00:54:12.798Z,1.20
2022-10-01T00:56:45.842Z,1.33
2022-10-01T00:59:18.914Z,1.97
2022-10-01T01:01:52.036Z,1.40
2022-10-01T01:04:25.176Z,1.83
2022-10-01T01:07:00.267Z,1.87
2022-10-01T01:09:47.397Z,3.47
2022-10-01T01:12:20.386Z,1.20
2022-10-01T01:14:59.943Z,1.93
2022-10-01T01:17:35.853Z,1.20
2022-10-01T01:20:08.885Z,2.43
2022-10-01T01:22:46.473Z,1.30
2022-10-01T01:25:20.623Z,1.10
2022-10-01T01:28:06.621Z,1.13
2022-10-01T01:30:41.104Z,1.60
2022-10-01T01:33:17.599Z,2.30
2022-10-01T01:35:52.848Z,1.73
2022-10-01T01:38:30.774Z,1.57
2022-10-01T01:41:04.505Z,1.47
2022-10-01T01:43:39.201Z,1.77
2022-10-01T01:46:13.864Z,2.17
2022-10-01T01:48:49.155Z,1.40
2022-10-01T01:51:26.666Z,1.43
2022-10-01T01:54:00.116Z,1.63
2022-10-01T01:56:34.229Z,1.97
2022-10-01T01:59:08.486Z,1.50
2022-10-01T02:01:42.646Z,1.63
2022-10-01T02:04:16.030Z,2.43
2022-10-01T02:07:16.058Z,1.83
2022-10-01T02:09:54.452Z,1.73
2022-10-01T02:12:45.864Z,3.30
2022-10-01T02:15:23.293Z,1.90
2022-10-01T02:17:59.313Z,1.33
2022-10-01T02:20:37.054Z,1.63
2022-10-01T02:23:13.455Z,2.40
2022-10-01T02:25:49.362Z,2.57
2022-10-01T02:28:23.570Z,2.63
2022-10-01T02:30:57.254Z,2.03
2022-10-01T02:33:32.364Z,1.63
2022-10-01T02:36:06.564Z,2.73
2022-10-01T02:38:41.289Z,1.30
2022-10-01T02:41:16.207Z,1.67
2022-10-01T02:43:58.833Z,1.33
2022-10-01T02:46:34.611Z,1.90
2022-10-01T02:49:07.618Z,4.17
2022-10-01T02:51:45.669Z,1.63
2022-10-01T02:54:20.731Z,1.90
2022-10-01T02:57:12.415Z,2.13
2022-10-01T02:59:45.378Z,4.50
2022-10-01T03:02:19.955Z,2.10
2022-10-01T03:04:53.209Z,2.27
2022-10-01T03:07:26.576Z,2.30
2022-10-01T03:09:59.667Z,3.63
2022-10-01T03:12:33.044Z,2.03
2022-10-01T03:15:07.095Z,3.03
2022-10-01T03:17:40.174Z,2.70
2022-10-01T03:20:13.257Z,1.70
2022-10-01T03:22:46.901Z,3.13
2022-10-01T03:25:19.892Z,1.90
2022-10-01T03:27:58.440Z,1.57
2022-10-01T03:30:32.803Z,1.43
2022-10-01T03:33:05.931Z,1.37
2022-10-01T03:35:38.838Z,1.70
2022-10-01T03:38:13.694Z,2.93
2022-10-01T03:40:46.745Z,1.30
2022-10-01T03:43:19.842Z,1.97
2022-10-01T03:45:52.774Z,2.90
2022-10-01T03:48:25.820Z,1.20
2022-10-01T03:50:59.702Z,1.20
2022-10-01T03:53:32.902Z,1.67
2022-10-01T03:56:05.973Z,1.37
2022-10-01T03:58:39.059Z,0.87
2022-10-01T04:01:12.247Z,1.90
2022-10-01T04:03:45.305Z,1.00
2022-10-01T04:06:18.554Z,0.90
2022-10-01T04:08:51.628Z,0.77
2022-10-01T04:11:24.753Z,1.70
2022-10-01T04:13:57.946Z,1.00
2022-10-01T04:16:30.981Z,1.47
2022-10-01T04:19:04.706Z,1.43
2022-10-01T04:21:38.973Z,0.70
2022-10-01T04:24:11.901Z,0.73
2022-10-01T04:26:44.995Z,1.07
2022-10-01T04:29:17.892Z,0.77
2022-10-01T04:31:51.019Z,0.80
2022-10-01T04:34:44.114Z,0.63
2022-10-01T04:37:17.154Z,0.93
2022-10-01T04:39:50.418Z,0.63
2022-10-01T04:42:23.619Z,1.33
2022-10-01T04:44:57.291Z,0.60
2022-10-01T04:47:32.674Z,0.57
2022-10-01T04:50:07.598Z,0.43
2022-10-01T04:52:40.573Z,0.47
2022-10-01T04:55:14.578Z,1.27
2022-10-01T04:57:47.794Z,1.67
2022-10-01T05:00:22.163Z,0.90
2022-10-01T05:02:55.153Z,0.50
2022-10-01T05:05:29.100Z,0.40
2022-10-01T05:08:02.588Z,0.50
2022-10-01T05:10:35.492Z,0.80
2022-10-01T05:13:08.895Z,0.30
2022-10-01T05:15:41.882Z,0.37
2022-10-01T05:18:14.956Z,0.50
2022-10-01T05:20:47.886Z,1.43
2022-10-01T05:23:20.830Z,0.33
2022-10-01T05:25:53.787Z,0.30
2022-10-01T05:28:30.267Z,0.43
2022-10-01T05:31:04.142Z,0.40
2022-10-01T05:33:37.848Z,0.40
2022-10-01T05:36:11.193Z,0.70
2022-10-01T05:38:44.124Z,0.50
2022-10-01T05:41:17.125Z,0.50
2022-10-01T05:43:51.162Z,0.30
2022-10-01T05:46:24.188Z,0.40
2022-10-01T05:48:57.088Z,0.83
2022-10-01T05:51:30.298Z,0.47
2022-10-01T05:54:04.347Z,0.40
2022-10-01T05:56:37.294Z,0.40
2022-10-01T05:59:10.554Z,0.40
2022-10-01T06:01:43.661Z,0.47
2022-10-01T06:04:16.671Z,0.27
2022-10-01T06:06:49.650Z,0.50
2022-10-01T06:09:22.597Z,0.50
2022-10-01T06:11:56.017Z,1.00
2022-10-01T06:14:29.648Z,1.07
2022-10-01T06:17:02.578Z,0.30
2022-10-01T06:19:35.674Z,0.37
2022-10-01T06:22:08.758Z,0.30
2022-10-01T06:24:41.654Z,0.40
2022-10-01T06:27:14.842Z,0.50
2022-10-01T06:29:47.916Z,0.50
2022-10-01T06:32:21.035Z,0.60
2022-10-01T06:34:54.002Z,0.93
2022-10-01T06:37:27.268Z,0.40
2022-10-01T06:40:00.445Z,0.32
2022-10-01T06:42:33.936Z,0.57
2022-10-01T06:45:07.062Z,0.30
2022-10-01T06:47:40.015Z,2.10
2022-10-01T06:50:13.121Z,0.90
2022-10-01T06:52:48.892Z,0.43
2022-10-01T06:55:22.866Z,0.40
2022-10-01T06:57:59.926Z,0.37
2022-10-01T07:00:33.684Z,0.40
2022-10-01T07:03:11.032Z,0.67
2022-10-01T07:05:44.074Z,0.30
2022-10-01T07:08:17.763Z,1.23
2022-10-01T07:10:50.725Z,0.70
2022-10-01T07:13:23.625Z,1.17
2022-10-01T07:15:56.656Z,0.40
2022-10-01T07:18:29.548Z,0.30
2022-10-01T07:21:02.595Z,0.60
2022-10-01T07:23:35.600Z,0.30
2022-10-01T07:26:09.112Z,0.20
2022-10-01T07:28:42.214Z,0.30
2022-10-01T07:31:15.367Z,2.20
2022-10-01T07:33:48.301Z,0.30
2022-10-01T07:36:21.306Z,0.63
2022-10-01T07:38:54.271Z,0.30
2022-10-01T07:41:27.444Z,0.20
2022-10-01T07:44:03.326Z,0.37
2022-10-01T07:46:36.329Z,0.30
2022-10-01T07:49:09.689Z,0.20
2022-10-01T07:51:45.580Z,1.07
2022-10-01T07:54:19.577Z,0.30
2022-10-01T07:56:55.733Z,1.20
2022-10-01T07:59:28.882Z,0.30
2022-10-01T08:02:01.964Z,0.30
2022-10-01T08:10:38.867Z,0.20
2022-10-01T08:13:16.836Z,0.20
2022-10-01T08:15:55.825Z,0.37
2022-10-01T08:18:28.933Z,0.50
2022-10-01T08:21:02.170Z,1.23
2022-10-01T08:23:35.409Z,0.30
2022-10-01T08:26:08.777Z,0.30
2022-10-01T08:28:42.181Z,0.60
2022-10-01T08:31:15.141Z,0.50
2022-10-01T08:33:48.336Z,1.60
2022-10-01T08:36:22.113Z,0.30
2022-10-01T08:38:55.258Z,0.20
2022-10-01T08:41:40.789Z,1.33
2022-10-01T08:44:21.838Z,1.30
2022-10-01T08:47:00.648Z,1.70
2022-10-01T08:49:48.786Z,0.87
2022-10-01T08:52:23.936Z,1.50
2022-10-01T08:55:02.576Z,1.03
2022-10-01T08:57:40.537Z,1.33
2022-10-01T09:00:17.687Z,0.57
2022-10-01T09:02:52.857Z,1.30
2022-10-01T09:05:29.775Z,0.50
2022-10-01T09:11:56.532Z,1.50
2022-10-01T09:14:46.015Z,0.90
2022-10-01T09:17:19.902Z,0.63
2022-10-01T09:20:25.332Z,0.83
2022-10-01T09:23:17.255Z,1.47
2022-10-01T09:25:54.313Z,0.50
2022-10-01T09:28:38.229Z,0.60
2022-10-01T09:31:21.589Z,0.50
2022-10-01T09:34:13.225Z,0.57
2022-10-01T09:36:48.735Z,0.87
2022-10-01T09:39:51.223Z,0.40
2022-10-01T09:42:27.167Z,2.70
2022-10-01T09:45:03.247Z,2.10
2022-10-01T09:47:36.378Z,0.93
2022-10-01T09:50:13.432Z,0.40
2022-10-01T09:52:48.813Z,1.67
2022-10-01T09:55:22.017Z,2.20
2022-10-01T09:58:03.827Z,2.60
2022-10-01T10:00:39.002Z,3.53
2022-10-01T10:03:22.118Z,1.80
2022-10-01T10:05:55.241Z,1.33
2022-10-01T10:08:30.114Z,0.93
2022-10-01T10:11:06.825Z,0.70
2022-10-01T10:13:41.154Z,1.97
2022-10-01T10:16:25.984Z,0.93
2022-10-01T10:19:10.134Z,2.40
2022-10-01T10:21:53.493Z,1.13
2022-10-01T10:24:28.044Z,2.30
2022-10-01T10:27:03.588Z,0.80
2022-10-01T10:29:37.555Z,4.10
2022-10-01T10:32:25.687Z,1.20
2022-10-01T10:35:03.077Z,1.87
2022-10-01T10:37:45.651Z,1.37
2022-10-01T10:40:45.477Z,3.57
2022-10-01T10:43:27.624Z,2.27
2022-10-01T10:46:01.456Z,5.00
2022-10-01T10:48:39.575Z,5.70
2022-10-01T10:51:12.511Z,7.87
2022-10-01T10:53:46.364Z,5.03
2022-10-01T10:56:26.086Z,3.93
2022-10-01T10:59:08.547Z,4.30
2022-10-01T11:01:43.880Z,2.40
2022-10-01T11:04:56.141Z,4.63
2022-10-01T11:07:30.159Z,3.17
2022-10-01T11:10:12.433Z,4.93
2022-10-01T11:13:01.261Z,5.03
2022-10-01T11:15:34.383Z,3.80
2022-10-01T11:18:16.673Z,3.80
2022-10-01T11:20:53.911Z,4.83
2022-10-01T11:23:37.846Z,13.03
2022-10-01T11:26:13.974Z,7.33
2022-10-01T11:28:46.958Z,4.70
2022-10-01T11:31:30.509Z,2.00
2022-10-01T11:34:18.887Z,3.27
2022-10-01T11:36:59.240Z,2.40
2022-10-01T11:39:34.347Z,2.03
2022-10-01T11:42:10.232Z,3.90
2022-10-01T11:44:45.854Z,1.80
2022-10-01T11:47:29.097Z,1.47
2022-10-01T11:50:14.417Z,5.77
2022-10-01T11:52:47.369Z,4.50
2022-10-01T11:55:44.878Z,3.37
2022-10-01T11:58:52.409Z,5.43
2022-10-01T12:01:25.886Z,2.83
2022-10-01T12:04:04.549Z,4.83
2022-10-01T12:06:41.160Z,4.87
2022-10-01T12:09:14.375Z,6.50
2022-10-01T12:11:55.086Z,2.33
2022-10-01T12:14:57.305Z,4.90
2022-10-01T12:17:36.708Z,4.93
2022-10-01T12:20:21.355Z,7.27
2022-10-01T12:22:56.207Z,7.30
2022-10-01T12:25:55.572Z,3.23
2022-10-01T12:28:34.773Z,1.50
2022-10-01T12:31:12.448Z,3.77
2022-10-01T12:34:06.821Z,3.08
2022-10-01T12:36:46.194Z,3.45
2022-10-01T12:39:38.226Z,4.63
2022-10-01T12:42:33.662Z,2.30
2022-10-01T12:45:06.732Z,3.38
2022-10-01T12:47:44.074Z,4.17
2022-10-01T12:50:20.002Z,4.38
2022-10-01T12:52:56.097Z,7.27
2022-10-01T12:55:47.769Z,2.77
2022-10-01T12:58:31.671Z,2.85
2022-10-01T13:01:07.628Z,7.33
2022-10-01T13:03:44.357Z,7.23
2022-10-01T13:06:36.320Z,5.00
2022-10-01T13:09:18.330Z,3.72
2022-10-01T13:11:58.088Z,3.43
2022-10-01T13:14:33.079Z,5.65
2022-10-01T13:17:10.691Z,6.30
2022-10-01T13:19:56.172Z,6.45
2022-10-01T13:22:35.462Z,4.30
2022-10-01T13:25:20.559Z,5.73
2022-10-01T13:27:59.620Z,2.77
2022-10-01T13:30:35.726Z,5.13
2022-10-01T13:33:22.562Z,4.97
2022-10-01T13:35:57.034Z,7.07
2022-10-01T13:38:31.534Z,3.60
2022-10-01T13:41:06.617Z,6.90
2022-10-01T13:43:43.930Z,3.57
2022-10-01T13:46:17.207Z,3.40
2022-10-01T13:48:52.419Z,4.27
2022-10-01T13:51:34.054Z,6.13
2022-10-01T13:54:09.088Z,6.83
2022-10-01T13:56:42.009Z,3.23
2022-10-01T13:59:27.262Z,5.23
2022-10-01T14:02:00.821Z,2.80
2022-10-01T14:04:36.736Z,2.83
2022-10-01T14:07:22.184Z,7.23
2022-10-01T14:09:57.831Z,4.37
2022-10-01T14:12:49.507Z,5.97
2022-10-01T14:16:01.821Z,3.47
2022-10-01T14:18:37.727Z,2.43
2022-10-01T14:21:28.342Z,2.67
2022-10-01T14:24:05.597Z,4.33
2022-10-01T14:26:51.036Z,6.03
2022-10-01T14:29:42.834Z,4.40
2022-10-01T14:32:15.889Z,5.55
2022-10-01T14:34:48.884Z,2.17
2022-10-01T14:37:22.088Z,5.43
2022-10-01T14:40:02.526Z,6.43
2022-10-01T14:42:35.775Z,6.23
2022-10-01T14:45:16.085Z,4.63
2022-10-01T14:47:49.998Z,2.67
2022-10-01T14:50:23.042Z,5.33
2022-10-01T14:52:56.082Z,5.17
2022-10-01T14:55:30.014Z,5.30
2022-10-01T14:58:05.059Z,3.73
2022-10-01T15:00:38.085Z,4.93
2022-10-01T15:03:15.697Z,6.30
2022-10-01T15:05:49.421Z,5.23
2022-10-01T15:08:23.793Z,3.90
2022-10-01T15:10:59.782Z,5.13
2022-10-01T15:13:40.322Z,4.83
2022-10-01T15:16:14.623Z,4.63
2022-10-01T15:18:50.722Z,2.73
2022-10-01T15:21:26.474Z,5.87
2022-10-01T15:24:01.273Z,4.90
2022-10-01T15:26:34.624Z,6.60
2022-10-01T15:29:13.205Z,5.40
2022-10-01T15:31:47.607Z,2.57
2022-10-01T15:34:21.996Z,10.37
2022-10-01T15:36:55.628Z,5.60
2022-10-01T15:39:33.471Z,4.90
2022-10-01T15:42:20.308Z,6.77
2022-10-01T15:45:08.558Z,1.97
2022-10-01T15:47:58.000Z,4.03
2022-10-01T15:50:36.565Z,4.00
2022-10-01T15:53:17.845Z,4.33
2022-10-01T15:55:53.566Z,3.37
2022-10-01T15:58:35.646Z,3.60
2022-10-01T16:01:10.246Z,4.03
2022-10-01T16:03:57.465Z,5.30
2022-10-01T16:06:35.976Z,7.10
2022-10-01T16:09:18.277Z,3.87
2022-10-01T16:12:02.839Z,3.30
2022-10-01T16:14:57.170Z,1.93
2022-10-01T16:17:33.290Z,2.30
2022-10-01T16:20:16.736Z,3.77
2022-10-01T16:22:50.100Z,2.50
2022-10-01T16:25:23.795Z,3.58
2022-10-01T16:27:57.004Z,3.40
2022-10-01T16:30:30.807Z,3.23
2022-10-01T16:33:06.133Z,2.80
2022-10-01T16:35:42.905Z,5.00
2022-10-01T16:38:16.786Z,3.08
2022-10-01T16:40:49.819Z,3.47
2022-10-01T16:43:24.219Z,3.17
2022-10-01T16:45:58.897Z,3.27
2022-10-01T16:48:32.182Z,1.90
2022-10-01T16:51:05.197Z,2.67
2022-10-01T16:53:39.294Z,4.97
2022-10-01T16:56:12.461Z,3.00
2022-10-01T16:58:46.394Z,3.03
2022-10-01T17:01:20.558Z,3.97
2022-10-01T17:03:54.408Z,3.63
2022-10-01T17:06:28.227Z,4.43
2022-10-01T17:09:01.289Z,4.10
2022-10-01T17:11:34.964Z,7.23
2022-10-01T17:14:15.641Z,5.70
2022-10-01T17:16:53.463Z,5.57
2022-10-01T17:19:26.873Z,6.40
2022-10-01T17:21:59.886Z,19.30
2022-10-01T17:24:33.231Z,17.87
2022-10-01T17:27:06.363Z,6.43
2022-10-01T17:29:40.158Z,8.03
2022-10-01T17:32:18.687Z,6.53
2022-10-01T17:34:53.682Z,13.43
2022-10-01T17:37:26.860Z,7.93
2022-10-01T17:40:00.056Z,5.73
2022-10-01T17:42:35.387Z,3.30
2022-10-01T17:45:09.544Z,6.83
2022-10-01T17:47:47.460Z,5.87
2022-10-01T17:50:20.498Z,3.67
2022-10-01T17:52:53.442Z,5.60
2022-10-01T17:55:27.421Z,5.53
2022-10-01T17:58:01.007Z,6.07
2022-10-01T18:00:34.703Z,6.50
2022-10-01T18:03:07.719Z,4.53
2022-10-01T18:05:41.802Z,5.73
2022-10-01T18:08:14.928Z,4.40
2022-10-01T18:10:48.201Z,3.23
2022-10-01T18:13:21.665Z,5.73
2022-10-01T18:16:01.767Z,4.15
2022-10-01T18:21:29.295Z,5.97
2022-10-01T18:24:05.155Z,10.67
2022-10-01T18:26:39.061Z,4.60
2022-10-01T18:29:17.933Z,6.40
2022-10-01T18:31:52.522Z,4.67
2022-10-01T18:34:29.134Z,9.00
2022-10-01T18:37:05.608Z,7.03
2022-10-01T18:39:43.996Z,5.43
2022-10-01T18:42:19.511Z,4.77
2022-10-01T18:45:02.601Z,5.93
2022-10-01T18:47:43.413Z,6.90
2022-10-01T18:50:23.385Z,6.37
2022-10-01T18:53:09.052Z,6.83
2022-10-01T18:55:52.555Z,4.67
2022-10-01T18:58:39.878Z,5.03
2022-10-01T19:01:21.660Z,3.90
2022-10-01T19:04:14.672Z,6.50
2022-10-01T19:07:15.310Z,6.83
2022-10-01T19:10:15.693Z,6.73
2022-10-01T19:12:52.032Z,3.37
2022-10-01T19:15:46.286Z,2.90
2022-10-01T19:18:40.316Z,5.53
2022-10-01T19:21:33.881Z,10.10
2022-10-01T19:24:31.518Z,5.37
2022-10-01T19:27:29.069Z,6.30
2022-10-01T19:30:08.292Z,3.03
2022-10-01T19:32:45.593Z,2.67
2022-10-01T19:35:22.584Z,4.27
2022-10-01T19:38:04.400Z,7.03
2022-10-01T19:40:41.576Z,3.40
2022-10-01T19:43:22.644Z,4.70
2022-10-01T19:46:05.454Z,2.63
2022-10-01T19:49:01.886Z,2.57
2022-10-01T19:51:40.720Z,5.63
2022-10-01T19:54:18.334Z,4.47
2022-10-01T19:56:57.341Z,3.23
2022-10-01T19:59:31.626Z,5.07
2022-10-01T20:02:14.648Z,4.87
2022-10-01T20:04:52.217Z,6.27
2022-10-01T20:07:47.709Z,5.77
2022-10-01T20:10:29.772Z,4.73
2022-10-01T20:13:10.409Z,4.23
2022-10-01T20:15:52.590Z,4.37
2022-10-01T20:18:34.324Z,3.00
2022-10-01T20:21:19.169Z,5.40
2022-10-01T20:23:58.518Z,10.43
2022-10-01T20:26:40.878Z,7.10
2022-10-01T20:29:32.594Z,5.97
2022-10-01T20:32:18.158Z,6.13
2022-10-01T20:35:09.872Z,6.03
2022-10-01T20:37:52.461Z,3.90
2022-10-01T20:40:34.466Z,3.53
2022-10-01T20:43:07.453Z,2.47
2022-10-01T20:45:41.120Z,5.67
2022-10-01T20:48:17.535Z,3.80
2022-10-01T20:50:53.830Z,3.23
2022-10-01T20:53:33.935Z,5.20
2022-10-01T20:56:33.821Z,2.90
2022-10-01T20:59:13.109Z,3.60
2022-10-01T21:02:02.104Z,3.70
2022-10-01T21:04:38.281Z,6.13
2022-10-01T21:07:30.293Z,4.80
2022-10-01T21:10:06.779Z,9.53
2022-10-01T21:12:42.875Z,4.53
2022-10-01T21:15:16.633Z,4.33
2022-10-01T21:18:10.416Z,5.13
2022-10-01T21:20:50.523Z,6.47
2022-10-01T21:23:23.545Z,6.97
2022-10-01T21:26:08.691Z,2.93
2022-10-01T21:28:55.515Z,6.17
2022-10-01T21:31:40.922Z,4.30
2022-10-01T21:34:19.113Z,11.47
2022-10-01T21:37:11.101Z,9.50
2022-10-01T21:40:03.702Z,4.07
2022-10-01T21:42:46.900Z,3.33
2022-10-01T21:45:25.654Z,3.23
2022-10-01T21:47:58.725Z,3.07
2022-10-01T21:50:50.791Z,2.17
2022-10-01T21:53:36.627Z,3.77
2022-10-01T21:56:21.505Z,3.53
2022-10-01T21:58:57.697Z,6.60
2022-10-01T22:01:50.982Z,7.53
2022-10-01T22:04:27.200Z,5.10
2022-10-01T22:07:24.662Z,5.33
2022-10-01T22:10:16.800Z,3.50
2022-10-01T22:12:51.856Z,3.23
2022-10-01T22:15:36.197Z,7.50
2022-10-01T22:18:12.829Z,5.00
2022-10-01T22:20:46.740Z,4.10
2022-10-01T22:23:20.392Z,4.13
2022-10-01T22:26:01.945Z,6.57
2022-10-01T22:28:37.550Z,5.60
2022-10-01T22:31:13.140Z,4.90
2022-10-01T22:33:49.493Z,4.93
2022-10-01T22:36:52.070Z,3.33
2022-10-01T22:39:26.251Z,6.97
2022-10-01T22:42:11.473Z,4.33
2022-10-01T22:44:44.526Z,4.60
2022-10-01T22:47:17.700Z,6.67
2022-10-01T22:50:02.784Z,2.70
2022-10-01T22:53:03.526Z,7.77
2022-10-01T22:55:42.613Z,5.23
2022-10-01T22:58:25.567Z,2.13
2022-10-01T23:01:01.709Z,2.90
2022-10-01T23:03:46.721Z,3.43
2022-10-01T23:06:22.741Z,3.93
2022-10-01T23:09:03.726Z,2.20
2022-10-01T23:11:49.978Z,4.27
2022-10-01T23:14:32.417Z,4.43
2022-10-01T23:17:11.466Z,5.60
2022-10-01T23:19:47.579Z,5.78
2022-10-01T23:22:39.338Z,7.07
2022-10-01T23:25:25.706Z,5.63
2022-10-01T23:28:10.355Z,6.63
2022-10-01T23:30:49.929Z,3.88
2022-10-01T23:33:33.791Z,4.20
2022-10-01T23:36:15.034Z,7.40
2022-10-01T23:38:57.189Z,4.17
2022-10-01T23:41:56.705Z,3.63
2022-10-01T23:44:49.876Z,2.73
2022-10-01T23:47:27.238Z,6.70
2022-10-01T23:50:01.200Z,3.87
2022-10-01T23:52:41.563Z,4.87
2022-10-01T23:55:35.654Z,4.67
2022-10-01T23:58:12.234Z,3.43
